createdAt,value
2022-10-24T00:01:17.711Z,99047.31
2022-10-24T00:03:45.314Z,99049.97
2022-10-24T00:06:13.814Z,99041.44
2022-10-24T00:08:43.004Z,99043.84
2022-10-24T00:11:12.765Z,99036.03
2022-10-24T00:13:40.081Z,99028.34
2022-10-24T00:16:07.512Z,99032.81
2022-10-24T00:18:34.689Z,99026.66
2022-10-24T00:21:01.562Z,99028.34
2022-10-24T00:23:28.616Z,99034.59
2022-10-24T00:25:55.500Z,99026.66
2022-10-24T00:28:22.410Z,99017.16
2022-10-24T00:30:52.869Z,99018.84
2022-10-24T00:33:20.070Z,99014.66
2022-10-24T00:35:47.328Z,99011.19
2022-10-24T00:38:14.718Z,99012.88
2022-10-24T00:40:41.877Z,99011.31
2022-10-24T00:43:20.815Z,99010.31
2022-10-24T00:45:51.420Z,99011.31
2022-10-24T00:48:23.674Z,99004.59
2022-10-24T00:50:54.541Z,99014.09
2022-10-24T00:53:23.103Z,99016.88
2022-10-24T00:55:53.193Z,99016.75
2022-10-24T00:58:23.501Z,99011.59
2022-10-24T01:00:50.512Z,99008.94
2022-10-24T01:03:17.714Z,99013.50
2022-10-24T01:06:05.992Z,99013.50
2022-10-24T01:08:58.525Z,99004.75
2022-10-24T01:12:03.017Z,99001.25
2022-10-24T01:14:29.806Z,98995.13
2022-10-24T01:17:37.085Z,98996.91
2022-10-24T01:20:25.584Z,99006.81
2022-10-24T01:23:14.992Z,98997.91
2022-10-24T01:26:17.687Z,99003.22
2022-10-24T01:29:17.067Z,98994.53
2022-10-24T01:31:57.811Z,98991.88
2022-10-24T01:34:31.269Z,98989.25
2022-10-24T01:37:29.377Z,98982.28
2022-10-24T01:40:07.071Z,98976.13
2022-10-24T01:42:38.548Z,98979.91
2022-10-24T01:45:07.540Z,98985.06
2022-10-24T01:47:40.806Z,98979.91
2022-10-24T01:50:11.978Z,98976.41
2022-10-24T01:52:41.781Z,98973.06
2022-10-24T01:55:09.529Z,98977.38
2022-10-24T01:57:36.574Z,98965.97
2022-10-24T02:00:06.803Z,98967.75
2022-10-24T02:02:40.077Z,98966.91
2022-10-24T02:05:36.772Z,98968.72
2022-10-24T02:08:09.625Z,98964.41
2022-10-24T02:10:44.023Z,98956.47
2022-10-24T02:13:42.549Z,98962.72
2022-10-24T02:16:10.090Z,98955.75
2022-10-24T02:18:39.825Z,98944.31
2022-10-24T02:21:28.874Z,98943.50
2022-10-24T02:24:06.934Z,98948.91
2022-10-24T02:26:41.319Z,98941.66
2022-10-24T02:29:18.983Z,98942.66
2022-10-24T02:31:53.745Z,98928.72
2022-10-24T02:34:24.149Z,98934.81
2022-10-24T02:36:55.000Z,98931.38
2022-10-24T02:39:23.337Z,98931.38
2022-10-24T02:41:54.919Z,98931.38
2022-10-24T02:44:22.949Z,98921.72
2022-10-24T02:46:53.099Z,98916.44
2022-10-24T02:49:19.954Z,98914.75
2022-10-24T02:51:48.316Z,98910.44
2022-10-24T02:54:15.271Z,98911.41
2022-10-24T02:56:48.035Z,98914.06
2022-10-24T02:59:14.871Z,98911.41
2022-10-24T03:01:41.752Z,98913.34
2022-10-24T03:04:08.636Z,98914.19
2022-10-24T03:06:35.895Z,98920.34
2022-10-24T03:09:02.829Z,98914.06
2022-10-24T03:11:29.680Z,98916.69
2022-10-24T03:13:56.913Z,98915.03
2022-10-24T03:16:23.729Z,98913.22
2022-10-24T03:18:50.640Z,98910.72
2022-10-24T03:21:17.456Z,98912.50
2022-10-24T03:23:44.316Z,98909.88
2022-10-24T03:26:11.076Z,98910.00
2022-10-24T03:28:38.073Z,98905.53
2022-10-24T03:31:05.595Z,98905.53
2022-10-24T03:33:33.012Z,98906.38
2022-10-24T03:36:00.150Z,98905.69
2022-10-24T03:38:27.130Z,98904.84
2022-10-24T03:40:54.101Z,98905.69
2022-10-24T03:43:21.053Z,98901.34
2022-10-24T03:45:48.012Z,98903.19
2022-10-24T03:48:15.395Z,98908.34
2022-10-24T03:50:42.480Z,98903.31
2022-10-24T03:53:09.355Z,98900.66
2022-10-24T03:55:36.359Z,98899.69
2022-10-24T03:58:03.234Z,98892.72
2022-10-24T04:00:30.178Z,98898.00
2022-10-24T04:02:57.091Z,98894.66
2022-10-24T04:05:23.925Z,98896.34
2022-10-24T04:07:50.821Z,98892.00
2022-10-24T04:10:17.848Z,98892.97
2022-10-24T04:12:44.764Z,98893.69
2022-10-24T04:15:11.839Z,98899.97
2022-10-24T04:17:38.877Z,98896.63
2022-10-24T04:20:06.587Z,98890.31
2022-10-24T04:22:33.441Z,98891.31
2022-10-24T04:25:00.328Z,98886.97
2022-10-24T04:27:27.242Z,98888.78
2022-10-24T04:29:54.108Z,98886.28
2022-10-24T04:32:21.046Z,98888.94
2022-10-24T04:34:48.035Z,98887.13
2022-10-24T04:37:14.894Z,98893.25
2022-10-24T04:39:41.737Z,98892.44
2022-10-24T04:42:08.519Z,98888.94
2022-10-24T04:44:35.341Z,98894.09
2022-10-24T04:47:02.343Z,98888.25
2022-10-24T04:49:29.159Z,98892.44
2022-10-24T04:51:55.961Z,98895.06
2022-10-24T04:54:22.909Z,98898.53
2022-10-24T04:56:49.735Z,98893.25
2022-10-24T04:59:16.605Z,98894.94
2022-10-24T05:01:43.482Z,98884.34
2022-10-24T05:04:10.528Z,98893.97
2022-10-24T05:06:39.250Z,98886.97
2022-10-24T05:09:08.298Z,98892.13
2022-10-24T05:11:35.609Z,98902.47
2022-10-24T05:14:02.432Z,98892.59
2022-10-24T05:16:29.209Z,98899.53
2022-10-24T05:18:55.989Z,98904.72
2022-10-24T05:21:22.934Z,98898.44
2022-10-24T05:23:49.874Z,98903.59
2022-10-24T05:26:16.751Z,98900.81
2022-10-24T05:28:43.664Z,98898.84
2022-10-24T05:31:10.610Z,98900.53
2022-10-24T05:33:37.457Z,98896.94
2022-10-24T05:36:05.786Z,98904.72
2022-10-24T05:38:32.635Z,98902.91
2022-10-24T05:40:59.501Z,98913.38
2022-10-24T05:43:26.295Z,98908.63
2022-10-24T05:45:53.229Z,98911.28
2022-10-24T05:48:20.074Z,98915.63
2022-10-24T05:50:46.891Z,98916.44
2022-10-24T05:53:13.743Z,98918.13
2022-10-24T05:55:40.724Z,98914.63
2022-10-24T05:58:08.116Z,98916.31
2022-10-24T06:00:35.116Z,98918.97
2022-10-24T06:03:02.153Z,98917.16
2022-10-24T06:05:28.994Z,98920.63
2022-10-24T06:07:55.835Z,98918.97
2022-10-24T06:10:22.903Z,98918.97
2022-10-24T06:12:49.809Z,98916.31
2022-10-24T06:15:16.993Z,98929.56
2022-10-24T06:17:43.925Z,98928.56
2022-10-24T06:20:11.024Z,98919.81
2022-10-24T06:22:38.247Z,98917.00
2022-10-24T06:25:05.652Z,98924.97
2022-10-24T06:27:32.571Z,98920.63
2022-10-24T06:29:59.520Z,98921.34
2022-10-24T06:32:26.464Z,98918.53
2022-10-24T06:34:53.447Z,98921.63
2022-10-24T06:37:20.305Z,98922.03
2022-10-24T06:39:47.199Z,98919.50
2022-10-24T06:42:14.615Z,98921.72
2022-10-24T06:44:41.554Z,98918.38
2022-10-24T06:47:08.465Z,98920.03
2022-10-24T06:49:35.508Z,98914.06
2022-10-24T06:52:02.587Z,98926.34
2022-10-24T06:54:30.652Z,98924.78
2022-10-24T06:56:57.899Z,98919.50
2022-10-24T06:59:24.874Z,98919.50
2022-10-24T07:01:51.932Z,98924.78
2022-10-24T07:04:18.909Z,98929.25
2022-10-24T07:06:46.233Z,98926.03
2022-10-24T07:09:15.405Z,98922.84
2022-10-24T07:11:43.432Z,98933.13
2022-10-24T07:14:10.856Z,98931.47
2022-10-24T07:16:38.463Z,98935.09
2022-10-24T07:19:06.590Z,98937.72
2022-10-24T07:21:34.474Z,98938.56
2022-10-24T07:24:01.836Z,98941.38
2022-10-24T07:26:29.940Z,98936.19
2022-10-24T07:31:49.000Z,98945.09
2022-10-24T07:34:16.225Z,98941.75
2022-10-24T07:36:43.981Z,98946.19
2022-10-24T07:39:12.339Z,98944.53
2022-10-24T07:41:43.671Z,98949.69
2022-10-24T07:44:11.462Z,98952.50
2022-10-24T07:46:38.749Z,98955.13
2022-10-24T07:49:05.790Z,98956.09
2022-10-24T07:51:32.843Z,98964.03
2022-10-24T07:54:00.114Z,98966.69
2022-10-24T07:56:27.319Z,98960.56
2022-10-24T07:58:56.527Z,98971.28
2022-10-24T08:01:25.722Z,98969.59
2022-10-24T08:03:52.780Z,98974.91
2022-10-24T08:06:29.009Z,98977.56
2022-10-24T08:08:56.348Z,98973.25
2022-10-24T08:11:26.418Z,98979.50
2022-10-24T08:13:57.673Z,98979.50
2022-10-24T08:16:25.811Z,98984.09
2022-10-24T08:18:56.137Z,98975.16
2022-10-24T08:21:24.328Z,98969.88
2022-10-24T08:23:54.026Z,98977.13
2022-10-24T08:26:23.150Z,98980.59
2022-10-24T08:28:51.001Z,98980.75
2022-10-24T08:31:20.894Z,98982.41
2022-10-24T08:33:48.954Z,98984.22
2022-10-24T08:36:26.936Z,98986.84
2022-10-24T08:38:55.157Z,98984.34
2022-10-24T08:41:28.620Z,98986.84
2022-10-24T08:43:58.291Z,98992.16
2022-10-24T08:46:50.722Z,98996.63
2022-10-24T08:49:41.907Z,98996.63
2022-10-24T08:52:40.818Z,99005.53
2022-10-24T08:55:44.310Z,99001.94
2022-10-24T08:58:07.702Z,99002.75
2022-10-24T09:00:42.292Z,99001.19
2022-10-24T09:03:26.661Z,99001.94
2022-10-24T09:06:16.910Z,99006.25
2022-10-24T09:09:04.459Z,99001.94
2022-10-24T09:11:45.864Z,99007.22
2022-10-24T09:14:19.989Z,99007.22
2022-10-24T09:16:52.805Z,99021.28
2022-10-24T09:19:23.957Z,99019.47
2022-10-24T09:21:52.682Z,99016.81
2022-10-24T09:24:39.992Z,99021.88
2022-10-24T09:30:18.376Z,99017.28
2022-10-24T09:32:45.704Z,99015.59
2022-10-24T09:35:19.701Z,99015.59
2022-10-24T09:37:58.161Z,99010.31
2022-10-24T09:40:26.755Z,99015.59
2022-10-24T09:43:04.745Z,99020.06
2022-10-24T09:46:02.271Z,99027.84
2022-10-24T09:48:49.977Z,99018.97
2022-10-24T09:51:35.382Z,99025.09
2022-10-24T09:54:07.888Z,99026.63
2022-10-24T09:56:42.657Z,99020.34
2022-10-24T09:59:33.889Z,99030.69
2022-10-24T10:02:23.685Z,99029.72
2022-10-24T10:05:17.992Z,99026.81
2022-10-24T10:07:49.065Z,99028.47
2022-10-24T10:10:18.600Z,99025.72
2022-10-24T10:12:48.634Z,99033.50
2022-10-24T10:15:33.350Z,99031.59
2022-10-24T10:18:03.105Z,99025.19
2022-10-24T10:20:42.621Z,99028.53
2022-10-24T10:23:29.858Z,99033.69
2022-10-24T10:26:15.231Z,99032.72
2022-10-24T10:28:46.307Z,99031.72
2022-10-24T10:31:13.671Z,99038.59
2022-10-24T10:33:47.504Z,99033.31
2022-10-24T10:36:22.991Z,99032.19
2022-10-24T10:39:45.057Z,99031.19
2022-10-24T10:42:14.873Z,99038.03
2022-10-24T10:45:37.706Z,99032.63
2022-10-24T10:48:33.360Z,99036.94
2022-10-24T10:51:21.136Z,99038.63
2022-10-24T10:54:03.130Z,99043.91
2022-10-24T10:56:56.240Z,99043.91
2022-10-24T10:59:47.995Z,99049.06
2022-10-24T11:02:57.193Z,99047.25
2022-10-24T11:05:47.785Z,99051.59
2022-10-24T11:08:20.591Z,99053.41
2022-10-24T11:10:55.223Z,99053.41
2022-10-24T11:13:34.982Z,99058.84
2022-10-24T11:16:07.157Z,99049.91
2022-10-24T11:18:42.725Z,99047.41
2022-10-24T11:21:13.435Z,99048.38
2022-10-24T11:23:52.632Z,99053.09
2022-10-24T11:26:27.356Z,99052.97
2022-10-24T11:28:59.948Z,99062.72
2022-10-24T11:31:32.795Z,99064.53
2022-10-24T11:34:11.942Z,99066.06
2022-10-24T11:36:57.410Z,99071.25
2022-10-24T11:39:27.140Z,99066.81
2022-10-24T11:42:06.210Z,99073.06
2022-10-24T11:44:50.263Z,99073.75
2022-10-24T11:47:38.872Z,99072.09
2022-10-24T11:50:06.068Z,99076.41
2022-10-24T11:52:42.647Z,99086.06
2022-10-24T11:55:24.370Z,99088.00
2022-10-24T11:57:55.272Z,99085.47
2022-10-24T12:00:31.210Z,99089.81
2022-10-24T12:03:27.483Z,99085.47
2022-10-24T12:06:25.163Z,99084.63
2022-10-24T12:09:19.171Z,99091.88
2022-10-24T12:12:07.099Z,99085.63
2022-10-24T12:14:45.923Z,99079.59
2022-10-24T12:17:34.540Z,99079.59
2022-10-24T12:20:02.775Z,99084.19
2022-10-24T12:22:36.706Z,99082.53
2022-10-24T12:25:08.691Z,99092.28
2022-10-24T12:27:39.819Z,99091.59
2022-10-24T12:30:09.655Z,99095.03
2022-10-24T12:32:46.751Z,99098.53
2022-10-24T12:35:47.324Z,99092.53
2022-10-24T12:38:34.377Z,99091.69
2022-10-24T12:41:22.748Z,99101.34
2022-10-24T12:43:50.113Z,99102.44
2022-10-24T12:46:21.889Z,99092.66
2022-10-24T12:48:59.656Z,99092.66
2022-10-24T12:51:33.702Z,99099.78
2022-10-24T12:54:04.370Z,99099.78
2022-10-24T12:56:33.575Z,99099.78
2022-10-24T12:59:20.853Z,99089.31
2022-10-24T13:01:50.402Z,99104.34
2022-10-24T13:04:57.402Z,99107.16
2022-10-24T13:07:27.489Z,99103.41
2022-10-24T13:10:10.409Z,99101.84
2022-10-24T13:12:58.591Z,99113.28
2022-10-24T13:16:13.151Z,99109.66
2022-10-24T13:19:07.936Z,99118.59
2022-10-24T13:21:48.499Z,99116.78
2022-10-24T13:24:15.422Z,99110.75
2022-10-24T13:26:56.311Z,99116.06
2022-10-24T13:29:29.249Z,99115.25
2022-10-24T13:32:18.778Z,99119.69
2022-10-24T13:34:50.875Z,99129.44
2022-10-24T13:37:23.974Z,99124.75
2022-10-24T13:39:53.584Z,99132.69
2022-10-24T13:42:25.719Z,99133.66
2022-10-24T13:44:59.053Z,99126.66
2022-10-24T13:47:41.010Z,99127.66
2022-10-24T13:50:11.022Z,99133.66
2022-10-24T13:52:49.480Z,99131.13
2022-10-24T13:55:39.233Z,99125.84
2022-10-24T13:58:06.288Z,99131.13
2022-10-24T14:00:37.986Z,99124.00
2022-10-24T14:03:12.911Z,99130.28
2022-10-24T14:05:46.096Z,99134.75
2022-10-24T14:08:30.854Z,99127.66
2022-10-24T14:11:00.676Z,99128.59
2022-10-24T14:13:30.251Z,99132.25
2022-10-24T14:16:07.701Z,99140.19
2022-10-24T14:18:37.391Z,99137.53
2022-10-24T14:21:05.699Z,99139.34
2022-10-24T14:23:41.022Z,99139.44
2022-10-24T14:26:19.490Z,99137.66
2022-10-24T14:28:50.905Z,99146.56
2022-10-24T14:31:24.929Z,99139.59
2022-10-24T14:33:55.182Z,99138.59
2022-10-24T14:36:26.094Z,99135.16
2022-10-24T14:38:59.129Z,99142.34
2022-10-24T14:41:35.168Z,99140.56
2022-10-24T14:44:03.076Z,99147.66
2022-10-24T14:46:35.412Z,99140.56
2022-10-24T14:49:21.769Z,99148.66
2022-10-24T14:54:51.947Z,99153.94
2022-10-24T14:57:21.707Z,99144.19
2022-10-24T14:59:51.811Z,99149.50
2022-10-24T15:02:24.281Z,99152.25
2022-10-24T15:04:52.405Z,99152.25
2022-10-24T15:07:38.114Z,99159.25
2022-10-24T15:10:13.091Z,99162.84
2022-10-24T15:12:46.976Z,99161.88
2022-10-24T15:15:24.172Z,99167.28
2022-10-24T15:17:54.325Z,99168.13
2022-10-24T15:20:24.391Z,99169.25
2022-10-24T15:22:55.283Z,99177.88
2022-10-24T15:25:36.847Z,99177.88
2022-10-24T15:28:06.943Z,99175.38
2022-10-24T15:30:38.374Z,99179.00
2022-10-24T15:33:08.151Z,99177.06
2022-10-24T15:35:40.050Z,99183.19
2022-10-24T15:38:19.002Z,99188.47
2022-10-24T15:40:48.986Z,99188.47
2022-10-24T15:43:20.084Z,99190.31
2022-10-24T15:45:47.051Z,99194.31
2022-10-24T15:48:14.018Z,99195.41
2022-10-24T15:50:46.547Z,99191.34
2022-10-24T15:53:22.960Z,99189.53
2022-10-24T15:55:50.051Z,99193.97
2022-10-24T15:58:18.503Z,99198.44
2022-10-24T16:00:45.831Z,99195.94
2022-10-24T16:03:17.675Z,99197.03
2022-10-24T16:05:49.362Z,99195.06
2022-10-24T16:08:19.181Z,99202.78
2022-10-24T16:10:51.335Z,99202.88
2022-10-24T16:13:20.856Z,99208.91
2022-10-24T16:15:48.982Z,99204.31
2022-10-24T16:18:16.113Z,99206.97
2022-10-24T16:20:43.218Z,99214.78
2022-10-24T16:23:14.218Z,99207.91
2022-10-24T16:25:41.364Z,99217.56
2022-10-24T16:28:08.533Z,99221.91
2022-10-24T16:30:38.274Z,99226.22
2022-10-24T16:33:06.126Z,99225.75
2022-10-24T16:35:35.315Z,99228.28
2022-10-24T16:38:03.732Z,99229.84
2022-10-24T16:40:31.500Z,99228.00
2022-10-24T16:42:59.708Z,99234.03
2022-10-24T16:45:26.828Z,99242.09
2022-10-24T16:47:53.768Z,99245.59
2022-10-24T16:50:24.529Z,99248.38
2022-10-24T16:53:07.074Z,99252.44
2022-10-24T16:55:34.883Z,99254.25
2022-10-24T16:58:01.925Z,99247.28
2022-10-24T17:00:30.562Z,99252.31
2022-10-24T17:02:58.908Z,99260.13
2022-10-24T17:05:29.977Z,99252.91
2022-10-24T17:07:58.940Z,99256.53
2022-10-24T17:10:26.086Z,99261.69
2022-10-24T17:12:53.415Z,99264.94
2022-10-24T17:15:22.276Z,99269.13
2022-10-24T17:17:50.365Z,99273.34
2022-10-24T17:20:17.891Z,99275.00
2022-10-24T17:22:46.788Z,99281.13
2022-10-24T17:25:20.334Z,99291.47
2022-10-24T17:27:48.065Z,99289.53
2022-10-24T17:30:21.851Z,99286.53
2022-10-24T17:32:49.638Z,99304.09
2022-10-24T17:35:20.997Z,99301.19
2022-10-24T17:37:47.907Z,99308.03
2022-10-24T17:40:25.488Z,99310.44
2022-10-24T17:42:52.867Z,99305.84
2022-10-24T17:45:24.080Z,99308.25
2022-10-24T17:47:51.524Z,99317.88
2022-10-24T17:50:20.051Z,99313.44
2022-10-24T17:52:51.365Z,99321.84
2022-10-24T17:58:14.376Z,99321.28
2022-10-24T18:00:41.594Z,99326.22
2022-10-24T18:03:09.047Z,99324.16
2022-10-24T18:05:38.647Z,99337.16
2022-10-24T18:08:12.484Z,99334.25
2022-10-24T18:10:41.736Z,99340.38
2022-10-24T18:13:10.005Z,99333.28
2022-10-24T18:15:38.199Z,99338.69
2022-10-24T18:18:05.859Z,99342.91
2022-10-24T18:20:33.304Z,99339.28
2022-10-24T18:23:00.679Z,99346.13
2022-10-24T18:25:28.808Z,99349.63
2022-10-24T18:27:56.807Z,99348.53
2022-10-24T18:30:24.090Z,99342.00
2022-10-24T18:32:51.789Z,99354.16
2022-10-24T18:35:19.002Z,99351.00
2022-10-24T18:37:46.364Z,99354.81
2022-10-24T18:40:14.714Z,99350.34
2022-10-24T18:42:54.495Z,99362.00
2022-10-24T18:45:24.596Z,99370.13
2022-10-24T18:47:52.936Z,99367.50
2022-10-24T18:50:22.774Z,99366.13
2022-10-24T18:53:11.147Z,99365.97
2022-10-24T18:55:39.241Z,99369.81
2022-10-24T18:58:13.268Z,99372.75
2022-10-24T19:00:42.597Z,99371.53
2022-10-24T19:03:34.112Z,99370.41
2022-10-24T19:06:20.117Z,99371.56
2022-10-24T19:08:47.535Z,99374.66
2022-10-24T19:11:15.847Z,99376.78
2022-10-24T19:13:45.281Z,99381.69
2022-10-24T19:16:19.611Z,99382.00
2022-10-24T19:18:54.011Z,99386.78
2022-10-24T19:21:21.763Z,99392.22
2022-10-24T19:23:50.682Z,99378.59
2022-10-24T19:26:17.955Z,99385.97
2022-10-24T19:28:45.315Z,99385.59
2022-10-24T19:31:15.381Z,99393.16
2022-10-24T19:33:46.739Z,99398.19
2022-10-24T19:36:19.069Z,99394.13
2022-10-24T19:38:47.124Z,99390.59
2022-10-24T19:41:14.351Z,99398.56
2022-10-24T19:43:41.618Z,99398.03
2022-10-24T19:46:19.905Z,99402.06
2022-10-24T19:49:08.006Z,99409.19
2022-10-24T19:51:35.530Z,99406.59
2022-10-24T19:54:04.242Z,99405.16
2022-10-24T19:56:32.003Z,99408.81
2022-10-24T19:58:59.589Z,99407.81
2022-10-24T20:01:30.337Z,99407.81
2022-10-24T20:03:58.369Z,99413.97
2022-10-24T20:06:28.770Z,99420.13
2022-10-24T20:08:56.261Z,99416.47
2022-10-24T20:11:23.507Z,99414.28
2022-10-24T20:13:50.919Z,99421.00
2022-10-24T20:16:18.311Z,99425.19
2022-10-24T20:18:45.903Z,99427.28
2022-10-24T20:21:16.654Z,99426.56
2022-10-24T20:23:47.496Z,99423.22
2022-10-24T20:26:21.144Z,99426.56
2022-10-24T20:28:52.221Z,99428.28
2022-10-24T20:31:20.654Z,99430.78
2022-10-24T20:33:49.134Z,99429.81
2022-10-24T20:36:18.872Z,99437.91
2022-10-24T20:38:46.883Z,99441.28
2022-10-24T20:41:14.322Z,99442.94
2022-10-24T20:43:42.088Z,99446.31
2022-10-24T20:46:11.108Z,99451.63
2022-10-24T20:48:40.138Z,99449.97
2022-10-24T20:51:16.446Z,99448.97
2022-10-24T20:53:44.952Z,99448.00
2022-10-24T20:56:23.623Z,99449.53
2022-10-24T20:58:52.323Z,99454.59
2022-10-24T21:01:25.635Z,99456.13
2022-10-24T21:03:54.805Z,99452.63
2022-10-24T21:06:30.783Z,99454.16
2022-10-24T21:09:00.929Z,99459.88
2022-10-24T21:11:30.682Z,99461.28
2022-10-24T21:14:04.048Z,99460.94
2022-10-24T21:16:32.063Z,99471.84
2022-10-24T21:19:03.212Z,99464.13
2022-10-24T21:21:33.253Z,99474.44
2022-10-24T21:24:06.622Z,99475.56
2022-10-24T21:26:40.481Z,99475.97
2022-10-24T21:31:59.997Z,99480.81
2022-10-24T21:34:31.615Z,99476.75
2022-10-24T21:37:01.562Z,99484.13
2022-10-24T21:39:29.472Z,99488.72
2022-10-24T21:41:57.331Z,99483.69
2022-10-24T21:44:24.589Z,99485.78
2022-10-24T21:46:52.627Z,99478.88
2022-10-24T21:49:21.040Z,99484.59
2022-10-24T21:51:50.055Z,99492.97
2022-10-24T21:54:26.181Z,99499.25
2022-10-24T21:56:53.646Z,99501.19
2022-10-24T21:59:22.545Z,99498.53
2022-10-24T22:01:51.532Z,99499.50
2022-10-24T22:04:24.136Z,99514.00
2022-10-24T22:06:52.013Z,99517.88
2022-10-24T22:09:24.306Z,99520.69
2022-10-24T22:11:51.797Z,99523.72
2022-10-24T22:14:19.264Z,99518.41
2022-10-24T22:16:46.943Z,99514.22
2022-10-24T22:19:14.586Z,99526.75
2022-10-24T22:21:47.887Z,99531.50
2022-10-24T22:24:21.819Z,99527.28
2022-10-24T22:26:51.186Z,99527.53
2022-10-24T22:29:23.355Z,99532.00
2022-10-24T22:31:52.312Z,99528.63
2022-10-24T22:34:22.834Z,99542.16
2022-10-24T22:37:14.118Z,99545.91
2022-10-24T22:39:41.379Z,99553.97
2022-10-24T22:42:19.171Z,99558.69
2022-10-24T22:44:48.320Z,99556.91
2022-10-24T22:47:32.597Z,99560.63
2022-10-24T22:50:36.687Z,99558.94
2022-10-24T22:53:04.168Z,99565.34
2022-10-24T22:56:12.889Z,99563.66
2022-10-24T22:58:42.328Z,99567.53
2022-10-24T23:01:21.904Z,99571.16
2022-10-24T23:03:49.315Z,99568.72
2022-10-24T23:06:27.301Z,99562.94
2022-10-24T23:08:54.192Z,99568.00
2022-10-24T23:11:21.424Z,99567.63
2022-10-24T23:13:48.582Z,99572.69
2022-10-24T23:16:22.988Z,99577.19
2022-10-24T23:18:50.156Z,99573.78
2022-10-24T23:21:29.033Z,99566.81
2022-10-24T23:23:56.139Z,99560.06
2022-10-24T23:26:55.997Z,99565.50
2022-10-24T23:29:35.779Z,99575.97
2022-10-24T23:32:04.453Z,99576.97
2022-10-24T23:34:32.035Z,99581.53
2022-10-24T23:37:03.201Z,99587.69
2022-10-24T23:39:32.502Z,99583.47
2022-10-24T23:42:00.740Z,99590.56
2022-10-24T23:44:28.069Z,99594.06
2022-10-24T23:47:13.420Z,99595.16
2022-10-24T23:49:51.370Z,99596.97
2022-10-24T23:52:29.134Z,99598.75
2022-10-24T23:54:56.321Z,99604.91
2022-10-24T23:57:23.477Z,99606.84
2022-10-24T23:59:50.309Z,99606.00
